Demo 6
Misión y Visión

La misión es proporcionar información fiable a la navegación aérea, contribuyendo a la seguridad, regularidad y eficiencia de la Navegación Aérea Internacional

La visión es contribuir sustancialmente al desarrollo de conocimientos y a la utilización de la meteorología aeronáutica a nivel nacional e internacional, mediante la innovación y la coparticipación con sectores sociales y productivos de la sociedad.

 
  Inicio
  Metar
  Taf
  Wintemp
  SIGMET
  Avisos
  Pronósticos
  Carpeta Meteorologica
  Imágenes Satelitales
  Climatología Aeronáutica
   
  ¿Quienes Somos?
  Contacto
  Eventos
Taf

 

IMÁGENES DEL AEROPUERTO
(EN CONSTRUCCION)

 

PRONOSTICO DE AERÓDROMO
TAF / PROYECCION CLIMATICA
MES DE JULIO

 

AEROPUERTO ENRIQUE MALEK:

TAF MPDA 181000Z 1812/1824 18006KT 9999 SCT015 SCT080 PROB30 TEMPO 1815/1818 22006KT 7000 RA SCT016 SCT080


TAF:

TAF MPSM 181000Z 1812/1918 33006KT 9999 SCT018 PROB30 TEMPO 1815/1818 22008KT 8000 RA SCT014 SCT070

 

AEROPUERTO PANAMA PACIFICO:

hola



TAF:



AEROPUERTO MARCOS A. GELABERT:

TAF MPMG 181000Z 1812/1824 34006KT 9999 SCT017 SCT100 PROB30 TEMPO 1815/1818 15008KT 8000 RA SCT016 SCT080



TAF:



AEROPUERTO INTL. DE TOCUMEN:

TAF MPTO 181000Z 1812/1918 04006KT 9999 SCT017 SCT100 PROB30 TEMPO 1815/1818 15008KT 8000 RA SCT018 SCT080



TAF:

TAF MPPA 181000Z 1812/1918 30006KT 9999 SCT016 SCT100 PROB30 TEMPO 1815/1818 2008KT 8000 RA SCT016 SCT080 BKN090


 
 

Found

The document has moved here.